Time;durP1;ratioP1;P1;durP2;ratioP2;P2;SDS_P1;SDS_P2;PMS_P1;PMS_P2;Temp;Humidity;BMP_temperature;BMP_pressure;BME280_temperature;BME280_humidity;BME280_pressure;Samples;Min_cycle;Max_cycle;Signal;HPM_P1;HPM_P2
2022/06/25 00:01:18;;;;;;;20.77;7.43;;;;;;;18.66;60.80;99525.31;5101342;27;20050;-78
2022/06/25 00:03:43;;;;;;;20.10;7.10;;;;;;;18.64;60.92;99525.47;5101010;27;20041;-77
2022/06/25 00:06:08;;;;;;;16.85;8.10;;;;;;;18.63;61.41;99528.31;5102506;27;20050;-74
2022/06/25 00:08:35;;;;;;;13.95;7.30;;;;;;;18.63;61.21;99536.41;5119072;27;20071;-70
2022/06/25 00:11:00;;;;;;;15.75;7.05;;;;;;;18.61;61.53;99533.06;5119212;27;20091;-76
2022/06/25 00:13:25;;;;;;;17.67;6.40;;;;;;;18.59;61.73;99543.19;5081888;27;20030;-75
2022/06/25 00:15:50;;;;;;;15.57;8.20;;;;;;;18.57;61.10;99537.06;5098573;27;20095;-70
2022/06/25 00:18:16;;;;;;;14.13;7.97;;;;;;;18.51;61.18;99544.78;5116756;27;20039;-71
2022/06/25 00:20:41;;;;;;;14.63;6.90;;;;;;;18.47;61.64;99543.44;5100636;27;20423;-69
2022/06/25 00:23:07;;;;;;;10.02;7.30;;;;;;;18.43;62.34;99552.00;5100128;27;20042;-71
2022/06/25 00:25:31;;;;;;;15.13;6.90;;;;;;;18.36;62.30;99545.56;5121943;27;20074;-69
2022/06/25 00:27:57;;;;;;;16.92;7.60;;;;;;;18.29;62.02;99558.84;5131166;27;20019;-73
2022/06/25 00:30:21;;;;;;;17.85;8.90;;;;;;;18.23;62.69;99562.22;5122514;27;20046;-70
2022/06/25 00:32:47;;;;;;;17.92;8.25;;;;;;;18.14;62.66;99553.22;5099473;27;20038;-72
2022/06/25 00:35:12;;;;;;;14.32;7.63;;;;;;;18.09;62.88;99555.53;5098953;27;20043;-74
2022/06/25 00:37:37;;;;;;;13.27;7.68;;;;;;;18.08;63.48;99558.41;5097135;27;20049;-75
2022/06/25 00:40:02;;;;;;;12.70;7.25;;;;;;;18.04;63.43;99562.44;5122438;27;20501;-74
2022/06/25 00:42:29;;;;;;;20.85;8.45;;;;;;;18.01;63.93;99569.00;5122849;27;20139;-74
2022/06/25 00:44:55;;;;;;;17.83;7.72;;;;;;;18.00;63.77;99578.09;5123451;27;20042;-72
2022/06/25 00:47:20;;;;;;;18.60;7.72;;;;;;;17.98;63.80;99573.84;5123095;27;20034;-73
2022/06/25 00:49:45;;;;;;;11.48;7.00;;;;;;;17.97;64.17;99582.94;5105957;27;20053;-73
2022/06/25 00:52:12;;;;;;;16.13;8.73;;;;;;;17.97;64.46;99581.09;5114939;27;20073;-72
2022/06/25 00:54:39;;;;;;;12.95;8.25;;;;;;;17.96;64.37;99581.25;5131245;27;20096;-74
2022/06/25 00:57:06;;;;;;;16.88;7.55;;;;;;;17.92;64.53;99578.03;5132581;27;20046;-72
2022/06/25 00:59:35;;;;;;;12.43;7.75;;;;;;;17.94;64.60;99581.44;5133033;27;20034;-73
2022/06/25 01:02:00;;;;;;;22.80;8.63;;;;;;;17.92;64.88;99591.53;5123414;27;20492;-73
2022/06/25 01:04:25;;;;;;;13.57;7.55;;;;;;;17.90;64.76;99590.84;5103144;27;20492;-71
2022/06/25 01:06:50;;;;;;;20.08;8.15;;;;;;;17.90;65.04;99598.06;5102949;27;20157;-71
2022/06/25 01:09:15;;;;;;;19.75;7.55;;;;;;;17.89;64.90;99590.97;5103842;27;20046;-71
2022/06/25 01:11:40;;;;;;;18.73;7.72;;;;;;;17.89;65.26;99601.78;5086305;27;20049;-72
2022/06/25 01:14:09;;;;;;;12.25;8.10;;;;;;;17.92;65.22;99596.06;5102707;27;20045;-71
2022/06/25 01:16:35;;;;;;;12.23;7.47;;;;;;;17.87;65.20;99609.16;5084053;27;20523;-66
2022/06/25 01:19:11;;;;;;;15.45;7.97;;;;;;;17.92;65.28;99602.31;5101027;27;20125;-67
2022/06/25 01:21:40;;;;;;;13.65;8.20;;;;;;;17.85;65.43;99603.94;5083911;27;20049;-69
2022/06/25 01:24:05;;;;;;;16.38;7.82;;;;;;;17.84;65.35;99606.78;5119505;27;20039;-70
2022/06/25 01:26:34;;;;;;;14.23;7.63;;;;;;;17.83;65.29;99611.34;5101348;27;20038;-70
2022/06/25 01:28:58;;;;;;;16.50;8.95;;;;;;;17.78;65.53;99613.66;5119975;27;20164;-70
2022/06/25 01:31:23;;;;;;;19.30;7.30;;;;;;;17.75;65.62;99612.13;5098690;27;20046;-66
2022/06/25 01:33:48;;;;;;;15.68;6.70;;;;;;;17.74;65.72;99615.81;5109322;27;20046;-80
2022/06/25 01:36:13;;;;;;;14.68;7.88;;;;;;;17.74;65.77;99625.75;5107232;27;20114;-77
2022/06/25 01:38:38;;;;;;;11.57;6.78;;;;;;;17.76;65.99;99619.22;5083379;27;20532;-71
2022/06/25 01:41:04;;;;;;;15.82;7.35;;;;;;;17.77;66.01;99620.91;5085628;27;20042;-75
2022/06/25 01:43:28;;;;;;;14.48;7.82;;;;;;;17.82;65.94;99625.84;5101944;27;20098;-74
2022/06/25 01:45:53;;;;;;;18.48;7.80;;;;;;;17.87;66.39;99622.66;5102187;27;20042;-77
2022/06/25 01:48:18;;;;;;;17.63;7.88;;;;;;;17.91;66.15;99622.19;5101257;27;20042;-74
2022/06/25 01:50:43;;;;;;;16.83;7.75;;;;;;;17.98;66.00;99625.09;5101445;27;20050;-72
2022/06/25 01:53:08;;;;;;;13.23;7.20;;;;;;;18.01;65.79;99620.25;5120076;27;20088;-75
2022/06/25 01:55:33;;;;;;;13.93;7.38;;;;;;;18.05;65.53;99618.09;5084262;27;20051;-73
2022/06/25 01:57:58;;;;;;;11.93;7.78;;;;;;;18.11;65.52;99621.00;5101132;27;20043;-72
2022/06/25 02:00:26;;;;;;;13.23;7.22;;;;;;;18.19;65.77;99619.34;5100667;27;20117;-72
2022/06/25 02:02:56;;;;;;;11.48;7.32;;;;;;;18.24;65.32;99625.97;5067628;27;20130;-74
2022/06/25 02:05:56;;;;;;;18.45;7.25;;;;;;;18.32;65.17;99631.41;5102571;27;20466;-75
2022/06/25 02:08:09;;;;;;;9.27;6.90;;;;;;;18.39;64.86;99627.09;5120516;27;20051;-75
2022/06/25 02:10:34;;;;;;;13.50;7.75;;;;;;;18.45;64.55;99625.59;5083405;27;20129;-74
2022/06/25 02:12:59;;;;;;;14.45;6.88;;;;;;;18.51;64.52;99631.19;5102020;27;20078;-75
2022/06/25 02:15:44;;;;;;;;;;;;;;;18.74;63.59;99634.19;5099801;27;20406;-74
2022/06/25 02:18:10;;;;;;;16.02;7.28;;;;;;;18.70;63.30;99634.69;5096577;27;20360;-71
2022/06/25 02:20:37;;;;;;;13.63;7.07;;;;;;;18.76;63.43;99636.72;5097373;27;20134;-76
2022/06/25 02:23:02;;;;;;;17.48;7.45;;;;;;;18.83;63.54;99640.50;5080677;27;20493;-71
2022/06/25 02:25:27;;;;;;;19.48;7.90;;;;;;;18.90;63.03;99630.72;5097654;27;20817;-71
2022/06/25 02:27:52;;;;;;;20.30;9.18;;;;;;;18.98;63.21;99633.44;5098993;27;20043;-76
2022/06/25 02:30:17;;;;;;;14.20;7.60;;;;;;;19.08;62.90;99638.72;5097091;27;20153;-73
2022/06/25 02:32:42;;;;;;;16.70;7.63;;;;;;;19.19;62.76;99630.31;5097329;27;20126;-71
2022/06/25 02:35:07;;;;;;;15.20;8.40;;;;;;;19.29;61.96;99631.03;5096245;27;20131;-73
2022/06/25 02:37:33;;;;;;;12.75;7.80;;;;;;;19.41;61.30;99623.44;5062641;27;20046;-74
2022/06/25 02:39:58;;;;;;;17.88;7.05;;;;;;;19.50;61.08;99627.88;5096661;27;20047;-76
2022/06/25 02:42:23;;;;;;;10.25;6.80;;;;;;;19.63;61.40;99627.41;5061880;27;20039;-70
2022/06/25 02:44:48;;;;;;;19.05;7.65;;;;;;;19.72;61.31;99638.06;5079320;27;20061;-71
2022/06/25 02:47:12;;;;;;;16.10;7.80;;;;;;;19.82;60.74;99632.47;5078871;27;20103;-71
2022/06/25 02:50:03;;;;;;;14.18;7.78;;;;;;;19.93;60.52;99640.25;5082425;27;20081;-72
2022/06/25 02:52:28;;;;;;;15.57;7.45;;;;;;;20.04;60.48;99639.06;5097137;27;20035;-70
2022/06/25 02:54:54;;;;;;;17.05;8.10;;;;;;;20.14;59.65;99637.88;5095927;27;20054;-73
2022/06/25 03:00:07;;;;;;;19.00;10.43;;;;;;;20.35;58.62;99650.88;5095510;27;20439;-76
2022/06/25 03:02:32;;;;;;;17.25;9.52;;;;;;;20.43;58.42;99650.88;5096009;27;20032;-72
2022/06/25 03:04:57;;;;;;;20.40;10.07;;;;;;;20.50;57.64;99646.47;5079685;27;20038;-72
2022/06/25 03:07:22;;;;;;;19.30;10.02;;;;;;;20.59;58.21;99656.25;5097755;27;20039;-72
2022/06/25 03:09:48;;;;;;;16.70;9.00;;;;;;;20.71;57.90;99662.16;5092552;27;20043;-74
2022/06/25 03:12:13;;;;;;;18.08;8.60;;;;;;;20.84;57.29;99661.59;5095809;27;20461;-76
2022/06/25 03:14:43;;;;;;;19.63;9.82;;;;;;;20.97;57.10;99662.75;5095999;27;20172;-74
2022/06/25 03:17:09;;;;;;;16.98;9.25;;;;;;;21.10;56.72;99659.47;5096995;27;20043;-75
2022/06/25 03:19:57;;;;;;;27.23;9.90;;;;;;;21.27;56.42;99658.38;5094901;27;20063;-75
2022/06/25 03:22:31;;;;;;;19.98;9.27;;;;;;;21.43;55.76;99670.19;5095613;27;20035;-76
2022/06/25 03:24:57;;;;;;;16.83;8.50;;;;;;;21.56;54.95;99670.41;5095437;27;20420;-76
2022/06/25 03:27:22;;;;;;;20.27;9.15;;;;;;;21.68;54.52;99671.69;5096801;27;20462;-76
2022/06/25 03:29:53;;;;;;;20.52;8.30;;;;;;;21.79;53.78;99671.28;5079913;27;20532;-76
2022/06/25 03:32:18;;;;;;;17.52;8.93;;;;;;;21.91;54.24;99669.81;5083527;27;20566;-77
2022/06/25 03:35:06;;;;;;;15.40;7.70;;;;;;;22.06;53.20;99676.19;5094407;27;20062;-77
2022/06/25 03:37:34;;;;;;;14.45;8.32;;;;;;;22.21;52.98;99670.81;5117296;27;20049;-76
2022/06/25 03:39:59;;;;;;;19.75;7.90;;;;;;;22.36;52.58;99673.53;5098830;27;20463;-75
2022/06/25 03:42:26;;;;;;;18.45;7.90;;;;;;;22.54;52.52;99686.78;5081848;27;20029;-74
2022/06/25 03:45:00;;;;;;;25.95;8.45;;;;;;;22.69;52.87;99685.75;5078155;27;20043;-74
2022/06/25 03:47:30;;;;;;;15.15;7.68;;;;;;;22.86;51.61;99683.75;5078429;27;20107;-74
2022/06/25 03:49:55;;;;;;;15.60;7.32;;;;;;;22.99;52.02;99696.69;5060464;27;20045;-76
2022/06/25 03:52:22;;;;;;;16.73;8.60;;;;;;;23.15;51.02;99691.03;5093675;27;20039;-74
2022/06/25 03:54:47;;;;;;;15.40;7.68;;;;;;;23.29;50.77;99692.91;5081523;27;20058;-74
2022/06/25 03:57:12;;;;;;;20.58;8.00;;;;;;;23.40;50.73;99692.41;5081375;27;20042;-74
2022/06/25 03:59:46;;;;;;;;;;;;;;;23.72;50.68;99691.13;5083083;27;20536;-76
2022/06/25 04:02:22;;;;;;;9.95;6.75;;;;;;;23.74;50.03;99688.22;5099131;27;20311;-76
2022/06/25 04:05:09;;;;;;;17.80;7.50;;;;;;;23.88;48.54;99685.47;5097814;27;20441;-76
2022/06/25 04:07:34;;;;;;;12.75;7.18;;;;;;;24.02;48.03;99691.88;5102062;27;20186;-78
2022/06/25 04:09:59;;;;;;;17.20;6.85;;;;;;;24.12;47.08;99686.94;5101499;27;20046;-77
2022/06/25 04:12:24;;;;;;;11.38;6.50;;;;;;;24.19;47.40;99701.47;5118342;27;20050;-76
2022/06/25 04:14:49;;;;;;;18.55;6.32;;;;;;;24.27;46.74;99696.97;5088932;27;20060;-75
2022/06/25 04:17:14;;;;;;;17.35;7.72;;;;;;;24.35;46.45;99694.09;5056585;27;20034;-74
2022/06/25 04:19:42;;;;;;;17.60;7.65;;;;;;;24.41;46.07;99705.03;5092244;27;20522;-74
2022/06/25 04:22:12;;;;;;;10.60;6.65;;;;;;;24.50;45.91;99700.28;5094800;27;20481;-75
2022/06/25 04:24:42;;;;;;;10.57;6.60;;;;;;;24.58;45.40;99708.31;5083595;27;20042;-75
2022/06/25 04:27:07;;;;;;;12.30;6.95;;;;;;;24.63;45.37;99710.44;5079624;27;20042;-75
2022/06/25 04:29:33;;;;;;;11.07;5.95;;;;;;;24.66;44.67;99704.59;5082970;27;20047;-74
2022/06/25 04:32:11;;;;;;;11.77;6.03;;;;;;;24.75;44.98;99701.50;5066818;27;20058;-74
2022/06/25 04:34:53;;;;;;;9.68;6.25;;;;;;;24.89;45.18;99706.00;5099684;27;20456;-74
2022/06/25 04:37:18;;;;;;;9.73;6.13;;;;;;;25.01;44.38;99710.94;5086463;27;20396;-76
2022/06/25 04:39:43;;;;;;;15.32;6.95;;;;;;;25.12;43.95;99699.47;5090200;27;20034;-78
2022/06/25 04:42:07;;;;;;;7.63;5.65;;;;;;;25.26;43.50;99712.97;5104440;27;20039;-77
2022/06/25 04:44:32;;;;;;;8.25;6.38;;;;;;;25.48;43.86;99708.25;5093158;27;20043;-75
2022/06/25 04:46:57;;;;;;;13.18;6.70;;;;;;;25.76;43.11;99710.88;5128255;27;20400;-76
2022/06/25 04:49:35;;;;;;;9.50;5.95;;;;;;;26.10;43.10;99715.34;5080468;27;20137;-76
2022/06/25 04:52:01;;;;;;;12.85;6.50;;;;;;;26.33;41.49;99713.09;5100170;27;20054;-75
2022/06/25 04:54:26;;;;;;;12.43;7.07;;;;;;;26.71;41.29;99712.47;5104792;27;20049;-75
2022/06/25 04:56:57;;;;;;;9.02;6.57;;;;;;;27.07;40.25;99718.34;5064571;27;20296;-77
2022/06/25 04:59:22;;;;;;;7.43;5.85;;;;;;;27.42;39.40;99726.22;5099668;27;20134;-76
2022/06/25 05:02:08;;;;;;;14.18;6.10;;;;;;;27.79;38.66;99722.69;5077670;28;20035;-76
2022/06/25 05:04:40;;;;;;;10.20;6.53;;;;;;;28.15;37.81;99733.03;5097491;27;20426;-75
2022/06/25 05:07:05;;;;;;;8.40;6.10;;;;;;;28.48;37.04;99730.06;5098577;27;20121;-77
2022/06/25 05:09:30;;;;;;;6.88;5.65;;;;;;;28.66;36.23;99725.72;5063073;27;20644;-76
2022/06/25 05:11:56;;;;;;;7.82;5.70;;;;;;;28.88;36.13;99730.59;5079993;27;20197;-77
2022/06/25 05:14:21;;;;;;;8.52;5.32;;;;;;;28.99;34.76;99731.75;5080582;27;20513;-77
2022/06/25 05:16:46;;;;;;;8.80;5.57;;;;;;;28.99;35.10;99734.50;5097367;27;20631;-76
2022/06/25 05:19:12;;;;;;;11.80;5.53;;;;;;;29.13;35.28;99737.91;5081620;27;20066;-76
2022/06/25 05:21:37;;;;;;;9.25;5.50;;;;;;;29.36;34.61;99734.50;5080547;27;20049;-77
2022/06/25 05:24:04;;;;;;;6.30;5.50;;;;;;;29.47;34.08;99731.84;5098535;27;20046;-75
2022/06/25 05:26:30;;;;;;;6.72;5.57;;;;;;;29.61;33.54;99744.34;5101789;27;20124;-76
2022/06/25 05:28:55;;;;;;;7.72;5.38;;;;;;;29.55;33.14;99745.28;5119947;27;20081;-78
2022/06/25 05:31:22;;;;;;;7.70;4.80;;;;;;;29.66;33.26;99746.44;5101179;27;20046;-78
2022/06/25 05:33:46;;;;;;;14.18;8.70;;;;;;;29.80;32.75;99739.66;5083633;27;20041;-77
2022/06/25 05:36:11;;;;;;;8.80;5.55;;;;;;;29.88;32.25;99744.88;5119875;27;20492;-79
2022/06/25 05:38:36;;;;;;;7.35;5.78;;;;;;;29.94;33.03;99738.41;5100822;27;20038;-78
2022/06/25 05:41:07;;;;;;;7.18;5.57;;;;;;;29.97;32.67;99739.91;5120154;27;20047;-75
2022/06/25 05:43:40;;;;;;;9.80;5.40;;;;;;;30.14;32.66;99743.66;5101267;27;20030;-76
2022/06/25 05:46:05;;;;;;;6.15;5.10;;;;;;;30.49;32.43;99746.50;5131782;27;20065;-79
2022/06/25 05:48:31;;;;;;;8.85;6.07;;;;;;;30.81;31.26;99741.56;5118656;27;20041;-75
2022/06/25 05:50:57;;;;;;;6.97;5.65;;;;;;;31.24;30.83;99749.47;5103240;27;20061;-75
2022/06/25 05:53:21;;;;;;;8.05;4.93;;;;;;;31.73;30.27;99755.50;5119285;27;20497;-76
2022/06/25 05:55:46;;;;;;;6.00;5.10;;;;;;;32.11;29.33;99758.47;5083252;27;20492;-78
2022/06/25 05:58:12;;;;;;;7.70;5.95;;;;;;;32.37;28.70;99746.00;5119146;27;20097;-78
2022/06/25 06:00:37;;;;;;;8.88;5.38;;;;;;;32.68;28.56;99757.56;5119029;27;20045;-76
2022/06/25 06:03:02;;;;;;;10.43;5.50;;;;;;;33.19;28.07;99751.75;5118804;27;20039;-76
2022/06/25 06:05:27;;;;;;;6.60;5.63;;;;;;;33.88;27.50;99754.91;5120421;27;20038;-76
2022/06/25 06:07:52;;;;;;;9.10;5.85;;;;;;;34.64;26.67;99759.59;5124602;27;20108;-79
2022/06/25 06:10:17;;;;;;;6.65;5.38;;;;;;;35.35;25.83;99760.13;5135205;27;20075;-77
2022/06/25 06:12:42;;;;;;;8.32;5.53;;;;;;;35.93;25.25;99759.88;5118114;27;20051;-78
2022/06/25 06:15:07;;;;;;;9.63;5.93;;;;;;;36.40;24.38;99763.59;5129109;27;20421;-77
2022/06/25 06:17:32;;;;;;;7.68;5.72;;;;;;;36.68;23.45;99766.66;5131783;27;20129;-80
2022/06/25 06:19:57;;;;;;;9.75;5.63;;;;;;;36.69;22.28;99770.31;5135120;27;20083;-79
2022/06/25 06:22:22;;;;;;;9.40;6.20;;;;;;;36.57;22.58;99770.56;5135035;27;20015;-77
2022/06/25 06:24:46;;;;;;;6.82;6.07;;;;;;;36.46;22.98;99774.44;5124862;27;20452;-77
2022/06/25 06:27:11;;;;;;;10.13;5.65;;;;;;;36.63;22.52;99761.13;5102172;27;20083;-76
2022/06/25 06:29:36;;;;;;;7.70;5.50;;;;;;;36.87;21.76;99758.66;5124040;27;20037;-76
2022/06/25 06:32:01;;;;;;;11.73;6.47;;;;;;;37.22;21.48;99762.53;5101517;27;20032;-75
2022/06/25 06:34:25;;;;;;;8.63;6.07;;;;;;;37.33;21.72;99761.38;5119068;27;20039;-76
2022/06/25 06:36:50;;;;;;;10.77;6.60;;;;;;;37.59;21.12;99748.19;5104293;27;20034;-76
2022/06/25 06:39:15;;;;;;;9.60;6.07;;;;;;;37.87;21.15;99755.91;5105253;27;20042;-74
2022/06/25 06:41:40;;;;;;;8.20;6.10;;;;;;;38.23;20.98;99756.56;5126107;27;20042;-76
2022/06/25 06:44:05;;;;;;;8.00;7.18;;;;;;;38.50;20.50;99768.03;5103960;27;20545;-75
2022/06/25 06:46:30;;;;;;;10.13;6.55;;;;;;;38.62;19.72;99761.31;5123866;27;20026;-74
2022/06/25 06:48:55;;;;;;;8.73;6.70;;;;;;;38.85;19.40;99766.13;5106631;27;20659;-73
2022/06/25 06:51:20;;;;;;;7.45;6.10;;;;;;;39.20;18.43;99763.00;5099656;27;20042;-73
2022/06/25 06:53:44;;;;;;;8.43;7.00;;;;;;;39.48;18.80;99761.34;5111413;27;20065;-72
2022/06/25 06:56:09;;;;;;;7.95;6.32;;;;;;;39.74;18.36;99761.84;5113690;27;20497;-73
2022/06/25 06:58:34;;;;;;;8.30;6.47;;;;;;;40.37;18.33;99764.38;5112088;27;20074;-74
2022/06/25 07:00:59;;;;;;;7.75;6.95;;;;;;;41.35;17.49;99770.81;5129809;27;20351;-74
2022/06/25 07:03:24;;;;;;;10.60;6.80;;;;;;;42.43;16.85;99771.06;5066520;27;20503;-75
2022/06/25 07:05:48;;;;;;;7.68;6.93;;;;;;;43.06;16.17;99764.41;5117331;27;20091;-74
2022/06/25 07:08:19;;;;;;;7.78;7.07;;;;;;;43.39;15.79;99767.75;5098798;27;20111;-75
2022/06/25 07:10:44;;;;;;;8.02;7.22;;;;;;;43.50;15.74;99782.31;5117111;27;20038;-76
2022/06/25 07:13:09;;;;;;;8.50;7.47;;;;;;;43.64;15.05;99774.63;5098787;27;20039;-78
2022/06/25 07:15:33;;;;;;;12.52;7.47;;;;;;;44.14;15.27;99775.91;5098592;27;20051;-77
2022/06/25 07:17:58;;;;;;;12.40;7.47;;;;;;;43.99;14.48;99770.78;5117438;27;20141;-77
2022/06/25 07:20:23;;;;;;;10.98;6.65;;;;;;;43.74;14.98;99763.09;5117103;27;20074;-78
2022/06/25 07:22:48;;;;;;;9.80;8.10;;;;;;;43.85;14.39;99767.25;5117406;27;20038;-76
2022/06/25 07:25:13;;;;;;;7.60;6.90;;;;;;;43.06;15.02;99753.19;5098766;27;20549;-76
2022/06/25 07:27:38;;;;;;;9.50;6.95;;;;;;;43.00;14.97;99768.53;5098791;27;20053;-75
2022/06/25 07:30:03;;;;;;;8.20;7.35;;;;;;;43.19;15.42;99749.50;5082086;27;20042;-75
2022/06/25 07:32:28;;;;;;;7.78;7.07;;;;;;;43.32;14.88;99759.78;5117234;27;20050;-77
2022/06/25 07:34:52;;;;;;;7.82;7.13;;;;;;;43.08;14.39;99750.91;5098792;27;20038;-76
2022/06/25 07:37:17;;;;;;;8.80;7.07;;;;;;;42.67;15.00;99748.28;5117426;27;20508;-75
2022/06/25 07:39:42;;;;;;;8.65;7.30;;;;;;;42.41;15.42;99756.53;5081460;27;20034;-77
2022/06/25 07:42:07;;;;;;;8.48;7.60;;;;;;;42.60;15.32;99753.53;5081601;27;20046;-78
2022/06/25 07:44:32;;;;;;;8.73;7.75;;;;;;;43.76;14.77;99747.56;5098802;27;20042;-76
2022/06/25 07:46:56;;;;;;;13.43;7.63;;;;;;;45.22;13.63;99754.34;5097913;27;20045;-77
2022/06/25 07:49:21;;;;;;;9.73;8.32;;;;;;;46.56;13.04;99759.00;5098386;27;20089;-75
2022/06/25 07:52:01;;;;;;;10.52;8.15;;;;;;;47.39;12.29;99805.22;5098003;27;20045;-75
2022/06/25 07:54:31;;;;;;;9.95;9.15;;;;;;;48.54;11.84;99752.78;5098168;27;20204;-77
2022/06/25 07:56:56;;;;;;;11.15;9.50;;;;;;;48.83;11.52;99757.31;5098091;27;20050;-76
2022/06/25 07:59:21;;;;;;;10.50;9.60;;;;;;;48.78;10.95;99751.03;5116234;27;20038;-76
2022/06/25 08:01:46;;;;;;;9.93;9.02;;;;;;;47.48;12.25;99755.06;5098375;27;20062;-77
2022/06/25 08:04:11;;;;;;;9.93;8.98;;;;;;;47.19;12.16;99741.94;5116356;27;20057;-76
2022/06/25 08:06:38;;;;;;;9.02;8.23;;;;;;;46.26;12.28;99754.66;5116438;27;20038;-75
2022/06/25 08:09:03;;;;;;;9.00;8.30;;;;;;;45.98;12.63;99759.13;5097881;27;20038;-76
2022/06/25 08:11:28;;;;;;;9.15;8.40;;;;;;;45.87;12.55;99762.31;5117754;27;20408;-77
2022/06/25 08:13:52;;;;;;;10.10;9.18;;;;;;;45.71;12.81;99755.66;5116666;27;20030;-77
2022/06/25 08:16:17;;;;;;;10.07;9.27;;;;;;;45.61;12.95;99750.38;5116976;27;20047;-78
2022/06/25 08:18:42;;;;;;;11.98;9.38;;;;;;;45.73;12.63;99752.47;5098413;27;20047;-77
2022/06/25 08:21:07;;;;;;;11.27;9.82;;;;;;;45.86;12.71;99748.56;5117062;27;20051;-79
2022/06/25 08:23:32;;;;;;;10.05;9.35;;;;;;;46.42;12.63;99744.38;5116589;27;20031;-78
2022/06/25 08:25:56;;;;;;;17.33;10.95;;;;;;;46.89;12.02;99741.28;5098384;27;20519;-77
2022/06/25 08:28:23;;;;;;;10.93;9.85;;;;;;;47.26;12.00;99747.84;5116355;27;20051;-74
2022/06/25 08:30:48;;;;;;;11.15;9.98;;;;;;;47.26;12.00;99745.03;5116152;27;20038;-74
2022/06/25 08:33:14;;;;;;;10.75;9.65;;;;;;;47.52;12.15;99742.69;5115746;27;20123;-73
2022/06/25 08:35:39;;;;;;;11.85;10.75;;;;;;;48.30;12.21;99745.22;5115696;27;20042;-72
2022/06/25 08:38:04;;;;;;;12.02;10.93;;;;;;;49.00;11.22;99747.63;5115760;27;20043;-71
2022/06/25 08:40:29;;;;;;;13.95;12.95;;;;;;;49.76;10.86;99740.72;5097595;27;20041;-73
2022/06/25 08:42:54;;;;;;;14.88;13.75;;;;;;;50.26;10.29;99737.00;5117334;27;20031;-71
2022/06/25 08:45:19;;;;;;;16.63;15.43;;;;;;;50.62;10.38;99749.13;5117408;27;20097;-72
2022/06/25 08:47:51;;;;;;;15.98;14.63;;;;;;;50.27;10.24;99750.00;5064146;27;20154;-74
2022/06/25 08:50:17;;;;;;;;;;;;;;;51.46;10.07;99744.25;5116319;27;20125;-73
2022/06/25 08:52:53;;;;;;;14.85;13.85;;;;;;;50.24;9.65;99742.25;5115567;27;19922;-74
2022/06/25 08:55:32;;;;;;;14.45;13.32;;;;;;;48.79;11.23;99730.84;5115832;27;20054;-73
2022/06/25 08:57:58;;;;;;;16.27;13.45;;;;;;;48.05;11.29;99729.47;5115436;27;20125;-74
2022/06/25 09:00:23;;;;;;;15.77;14.45;;;;;;;47.89;11.43;99718.09;5099765;27;20438;-73
2022/06/25 09:02:48;;;;;;;12.77;11.85;;;;;;;48.79;11.42;99724.38;5100980;27;20122;-72
2022/06/25 09:05:13;;;;;;;17.40;15.80;;;;;;;49.91;10.97;99716.34;5101299;27;20635;-73
2022/06/25 09:07:51;;;;;;;18.20;17.05;;;;;;;50.65;9.86;99720.00;5101038;27;20106;-72
2022/06/25 09:10:19;;;;;;;16.70;15.45;;;;;;;50.88;10.37;99726.56;5100664;27;20039;-73
2022/06/25 09:12:50;;;;;;;17.20;15.90;;;;;;;51.43;10.28;99727.94;5083364;27;20081;-73
2022/06/25 09:15:20;;;;;;;23.15;21.45;;;;;;;52.01;9.96;99726.84;5100843;27;20122;-72
2022/06/25 09:17:49;;;;;;;21.25;19.35;;;;;;;52.81;9.45;99722.56;5100626;27;20130;-73
2022/06/25 09:20:14;;;;;;;23.85;22.17;;;;;;;53.42;8.76;99787.47;5118992;27;20424;-70
2022/06/25 09:22:39;;;;;;;28.98;27.27;;;;;;;53.27;8.55;99803.66;5100254;27;20591;-70
2022/06/25 09:25:04;;;;;;;36.97;34.22;;;;;;;52.98;8.90;99778.91;5118972;27;20389;-70
2022/06/25 09:27:38;;;;;;;25.75;24.08;;;;;;;52.28;8.52;99727.59;5100858;27;20121;-71
2022/06/25 09:30:09;;;;;;;22.63;21.13;;;;;;;51.80;8.86;99731.00;5100917;27;20531;-72
2022/06/25 09:32:48;;;;;;;22.63;21.23;;;;;;;52.28;9.93;99738.97;5100721;27;20054;-73
2022/06/25 09:35:27;;;;;;;23.48;21.80;;;;;;;51.11;9.49;99727.38;5119148;27;20125;-76
2022/06/25 09:37:51;;;;;;;22.13;20.35;;;;;;;51.35;10.00;99725.38;5102427;27;20074;-75
2022/06/25 09:40:16;;;;;;;19.98;18.52;;;;;;;51.58;9.56;99719.69;5107872;27;20053;-74
2022/06/25 09:42:41;;;;;;;24.02;21.95;;;;;;;52.40;9.67;99728.16;5121698;27;20846;-74
2022/06/25 09:45:12;;;;;;;25.90;24.30;;;;;;;53.69;9.32;99739.66;5118862;27;20500;-74
2022/06/25 09:47:38;;;;;;;30.77;29.08;;;;;;;54.65;8.66;99791.59;5100157;27;20046;-73
2022/06/25 09:50:11;;;;;;;28.13;26.63;;;;;;;54.18;8.06;99784.03;5118787;27;20049;-74
2022/06/25 09:52:37;;;;;;;29.35;27.35;;;;;;;52.24;8.87;99721.88;5118289;27;20046;-72
2022/06/25 09:55:03;;;;;;;27.38;25.77;;;;;;;51.85;8.96;99718.44;5099866;27;20041;-74
2022/06/25 09:57:30;;;;;;;27.00;25.08;;;;;;;52.21;9.25;99725.47;5082458;27;20050;-73
2022/06/25 09:59:58;;;;;;;27.63;25.58;;;;;;;52.75;9.24;99713.53;5118085;27;20034;-74
2022/06/25 10:02:27;;;;;;;31.67;29.83;;;;;;;53.60;8.22;99720.06;5118017;27;20066;-73
2022/06/25 10:04:57;;;;;;;29.58;27.65;;;;;;;54.39;8.37;99721.34;5082691;27;20031;-74
2022/06/25 10:07:59;;;;;;;29.52;27.73;;;;;;;53.25;8.76;99714.88;5099605;27;20057;-74
2022/06/25 10:10:07;;;;;;;27.92;26.20;;;;;;;51.12;9.97;99709.16;5117384;27;20066;-75
2022/06/25 10:12:32;;;;;;;25.60;24.00;;;;;;;50.47;10.04;99703.41;5099674;27;20062;-76
2022/06/25 10:14:57;;;;;;;22.95;21.35;;;;;;;50.59;9.93;99708.13;5118219;27;20081;-74
2022/06/25 10:17:22;;;;;;;21.98;20.65;;;;;;;51.46;9.39;99709.31;5082128;27;20038;-72
2022/06/25 10:19:47;;;;;;;28.20;26.60;;;;;;;52.78;8.86;99718.47;5105633;27;20158;-74
2022/06/25 10:22:12;;;;;;;30.55;28.70;;;;;;;54.20;8.21;99770.97;5102960;27;20065;-73
2022/06/25 10:24:37;;;;;;;34.63;32.72;;;;;;;55.10;7.91;99790.09;5120267;27;20038;-74
2022/06/25 10:27:03;;;;;;;39.63;37.42;;;;;;;55.63;7.43;99758.72;5119713;27;20034;-72
2022/06/25 10:29:29;;;;;;;44.72;42.20;;;;;;;56.01;7.53;99764.75;5119620;27;20106;-72
2022/06/25 10:32:12;;;;;;;53.50;51.00;;;;;;;57.20;7.12;99766.69;5138887;27;20130;-74
2022/06/25 10:34:37;;;;;;;45.28;42.75;;;;;;;55.63;7.46;99778.72;5138352;27;20528;-73
2022/06/25 10:37:02;;;;;;;40.63;38.45;;;;;;;52.98;8.82;99739.03;5138061;27;20558;-72
2022/06/25 10:39:27;;;;;;;26.48;24.98;;;;;;;50.05;10.26;99691.16;5138265;27;20500;-72
2022/06/25 10:45:06;;;;;;;17.80;13.27;;;;;;;44.47;14.21;99677.06;5138342;27;20050;-73
2022/06/25 10:47:43;;;;;;;11.52;10.25;;;;;;;42.60;15.65;99667.44;5119024;27;20063;-72
2022/06/25 10:50:23;;;;;;;13.02;8.75;;;;;;;41.00;16.39;99666.00;5118928;27;20117;-73
2022/06/25 10:55:33;;;;;;;11.10;7.97;;;;;;;38.46;19.00;99657.50;5138331;27;20568;-72
2022/06/25 10:58:10;;;;;;;9.20;7.97;;;;;;;38.01;19.20;99658.69;5137696;27;20042;-72
2022/06/25 11:00:47;;;;;;;9.18;6.97;;;;;;;37.26;20.03;99653.22;5119199;27;20077;-72
2022/06/25 11:03:12;;;;;;;7.72;7.03;;;;;;;36.30;22.16;99648.66;5119394;27;20057;-73
2022/06/25 11:05:42;;;;;;;8.60;7.07;;;;;;;36.06;21.69;99647.50;5119390;27;20511;-73
2022/06/25 11:08:07;;;;;;;8.88;6.30;;;;;;;35.72;22.44;99652.69;5137922;27;20038;-74
2022/06/25 11:10:36;;;;;;;8.80;7.30;;;;;;;35.58;22.83;99657.91;5137847;27;20050;-73
2022/06/25 11:13:03;;;;;;;7.68;6.93;;;;;;;35.34;22.91;99644.81;5137752;27;20038;-72
2022/06/25 11:15:39;;;;;;;7.00;6.30;;;;;;;35.37;23.80;99656.19;5137805;27;20504;-71
2022/06/25 11:18:10;;;;;;;8.60;6.40;;;;;;;35.06;23.96;99718.09;5137748;27;20038;-72
2022/06/25 11:20:36;;;;;;;13.35;6.80;;;;;;;34.79;24.34;99702.41;5101436;27;20134;-72
2022/06/25 11:23:02;;;;;;;9.50;6.32;;;;;;;34.55;24.50;99707.44;5075911;27;20040;-71
2022/06/25 11:30:54;;;;;;;8.73;7.93;;;;;;;33.17;25.67;99659.19;5079197;27;20039;-77
2022/06/25 11:33:19;;;;;;;8.35;6.03;;;;;;;32.71;26.28;99646.66;5096814;27;20050;-76
2022/06/25 11:35:45;;;;;;;8.15;6.10;;;;;;;32.38;26.10;99647.50;5079648;27;20046;-77
2022/06/25 11:38:14;;;;;;;10.35;6.70;;;;;;;32.04;26.36;99647.47;5101173;27;20771;-69
2022/06/25 11:40:38;;;;;;;7.18;6.47;;;;;;;31.65;26.76;99640.13;5082074;27;20546;-74